sensor_id;sensor_type;location;lat;lon;timestamp;pressure;altitude;pressure_sealevel;temperature;humidity
68994;BME280;56054;50.968;5.816;2023-04-02T07:33:14;100923.69;;;4.68;100.00
68994;BME280;56054;50.968;5.816;2023-04-02T07:36:23;100920.13;;;4.66;100.00
68994;BME280;56054;50.968;5.816;2023-04-02T07:39:32;100930.53;;;4.67;100.00
68994;BME280;56054;50.968;5.816;2023-04-02T07:42:41;100936.25;;;4.55;100.00
68994;BME280;56054;50.968;5.816;2023-04-02T07:45:49;100936.72;;;4.50;100.00
68994;BME280;56054;50.968;5.816;2023-04-02T07:49:21;100962.13;;;4.56;100.00
68994;BME280;56054;50.968;5.816;2023-04-02T07:52:29;100953.06;;;4.51;100.00
68994;BME280;56054;50.968;5.816;2023-04-02T07:55:38;100959.88;;;4.50;100.00
68994;BME280;56054;50.968;5.816;2023-04-02T07:58:46;100974.22;;;4.38;100.00
68994;BME280;56054;50.968;5.816;2023-04-02T08:02:25;100979.56;;;4.50;100.00
68994;BME280;56054;50.968;5.816;2023-04-02T08:05:31;100983.75;;;4.58;100.00
68994;BME280;56054;50.968;5.816;2023-04-02T08:08:39;100984.38;;;4.56;100.00
68994;BME280;56054;50.968;5.816;2023-04-02T08:12:14;101003.09;;;4.44;100.00
68994;BME280;56054;50.968;5.816;2023-04-02T08:15:21;101000.53;;;4.44;100.00
68994;BME280;56054;50.968;5.816;2023-04-02T08:18:28;101008.34;;;4.46;100.00
68994;BME280;56054;50.968;5.816;2023-04-02T08:21:36;101013.81;;;4.49;100.00
68994;BME280;56054;50.968;5.816;2023-04-02T08:24:43;101021.41;;;4.39;100.00
68994;BME280;56054;50.968;5.816;2023-04-02T08:27:55;101031.16;;;4.33;100.00
68994;BME280;56054;50.968;5.816;2023-04-02T08:31:02;101029.09;;;4.47;100.00
68994;BME280;56054;50.968;5.816;2023-04-02T08:41:00;101048.97;;;4.40;100.00
68994;BME280;56054;50.968;5.816;2023-04-02T08:48:01;101077.91;;;4.37;100.00
68994;BME280;56054;50.968;5.816;2023-04-02T08:51:35;101081.53;;;4.39;100.00
68994;BME280;56054;50.968;5.816;2023-04-02T08:54:44;101085.28;;;4.43;100.00
68994;BME280;56054;50.968;5.816;2023-04-02T09:05:28;101113.97;;;4.56;100.00
68994;BME280;56054;50.968;5.816;2023-04-02T09:08:38;101120.66;;;4.54;100.00
68994;BME280;56054;50.968;5.816;2023-04-02T09:15:13;101124.81;;;4.62;100.00
68994;BME280;56054;50.968;5.816;2023-04-02T09:18:22;101128.28;;;4.63;100.00
68994;BME280;56054;50.968;5.816;2023-04-02T09:21:36;101130.75;;;4.61;100.00
68994;BME280;56054;50.968;5.816;2023-04-02T09:24:51;101136.97;;;4.55;100.00
68994;BME280;56054;50.968;5.816;2023-04-02T09:28:09;101154.19;;;4.64;100.00
68994;BME280;56054;50.968;5.816;2023-04-02T09:31:25;101163.88;;;4.67;100.00
68994;BME280;56054;50.968;5.816;2023-04-02T09:34:44;101169.00;;;4.67;100.00
68994;BME280;56054;50.968;5.816;2023-04-02T09:41:19;101173.44;;;4.59;100.00
68994;BME280;56054;50.968;5.816;2023-04-02T09:44:34;101178.88;;;4.62;100.00
68994;BME280;56054;50.968;5.816;2023-04-02T09:47:41;101178.44;;;4.58;100.00
68994;BME280;56054;50.968;5.816;2023-04-02T09:51:32;101189.94;;;4.61;100.00
68994;BME280;56054;50.968;5.816;2023-04-02T09:54:41;101194.94;;;4.60;100.00
68994;BME280;56054;50.968;5.816;2023-04-02T09:58:22;101196.91;;;4.62;100.00
68994;BME280;56054;50.968;5.816;2023-04-02T10:01:33;101212.19;;;4.61;100.00
68994;BME280;56054;50.968;5.816;2023-04-02T10:04:44;101211.72;;;4.65;100.00
68994;BME280;56054;50.968;5.816;2023-04-02T10:07:53;101228.66;;;4.71;100.00
68994;BME280;56054;50.968;5.816;2023-04-02T10:11:17;101224.88;;;4.68;100.00
68994;BME280;56054;50.968;5.816;2023-04-02T10:14:35;101226.63;;;4.78;100.00
68994;BME280;56054;50.968;5.816;2023-04-02T10:17:59;101231.50;;;4.75;100.00
68994;BME280;56054;50.968;5.816;2023-04-02T10:21:09;101235.91;;;4.76;100.00
68994;BME280;56054;50.968;5.816;2023-04-02T10:24:18;101253.13;;;4.85;100.00
68994;BME280;56054;50.968;5.816;2023-04-02T10:27:56;101252.81;;;4.82;100.00
68994;BME280;56054;50.968;5.816;2023-04-02T10:31:21;101258.41;;;4.87;100.00
68994;BME280;56054;50.968;5.816;2023-04-02T10:34:51;101258.88;;;4.83;100.00
68994;BME280;56054;50.968;5.816;2023-04-02T10:45:44;101274.91;;;4.89;100.00
68994;BME280;56054;50.968;5.816;2023-04-02T10:52:23;101284.59;;;4.91;100.00
68994;BME280;56054;50.968;5.816;2023-04-02T10:55:36;101286.19;;;5.08;100.00
68994;BME280;56054;50.968;5.816;2023-04-02T10:59:01;101291.78;;;5.13;100.00
68994;BME280;56054;50.968;5.816;2023-04-02T11:02:24;101283.59;;;5.08;100.00
68994;BME280;56054;50.968;5.816;2023-04-02T11:05:46;101301.28;;;5.14;100.00
68994;BME280;56054;50.968;5.816;2023-04-02T11:09:02;101302.81;;;5.12;100.00
68994;BME280;56054;50.968;5.816;2023-04-02T11:12:20;101309.47;;;5.19;100.00
68994;BME280;56054;50.968;5.816;2023-04-02T11:15:31;101316.09;;;5.25;100.00
68994;BME280;56054;50.968;5.816;2023-04-02T11:18:38;101318.41;;;5.22;100.00
68994;BME280;56054;50.968;5.816;2023-04-02T11:21:53;101308.22;;;5.24;100.00
68994;BME280;56054;50.968;5.816;2023-04-02T11:25:02;101325.63;;;5.26;100.00
68994;BME280;56054;50.968;5.816;2023-04-02T11:28:29;101333.22;;;5.25;100.00
68994;BME280;56054;50.968;5.816;2023-04-02T11:31:38;101343.03;;;5.29;100.00
68994;BME280;56054;50.968;5.816;2023-04-02T11:38:00;101345.25;;;5.43;100.00
68994;BME280;56054;50.968;5.816;2023-04-02T11:41:08;101349.34;;;5.41;100.00
68994;BME280;56054;50.968;5.816;2023-04-02T11:44:22;101353.66;;;5.32;100.00
68994;BME280;56054;50.968;5.816;2023-04-02T11:47:30;101356.97;;;5.31;100.00
68994;BME280;56054;50.968;5.816;2023-04-02T11:53:46;101365.16;;;5.35;100.00
68994;BME280;56054;50.968;5.816;2023-04-02T11:57:26;101371.19;;;5.36;100.00
68994;BME280;56054;50.968;5.816;2023-04-02T12:04:15;101381.03;;;5.40;100.00
68994;BME280;56054;50.968;5.816;2023-04-02T12:11:17;101380.81;;;5.56;100.00
68994;BME280;56054;50.968;5.816;2023-04-02T12:15:01;101396.84;;;5.62;100.00
68994;BME280;56054;50.968;5.816;2023-04-02T12:18:15;101403.53;;;5.60;100.00
68994;BME280;56054;50.968;5.816;2023-04-02T12:21:26;101400.06;;;5.60;100.00
68994;BME280;56054;50.968;5.816;2023-04-02T12:24:38;101398.53;;;5.62;100.00
68994;BME280;56054;50.968;5.816;2023-04-02T12:27:46;101406.00;;;5.77;100.00
68994;BME280;56054;50.968;5.816;2023-04-02T12:31:14;101424.88;;;5.68;100.00
68994;BME280;56054;50.968;5.816;2023-04-02T12:34:24;101416.66;;;5.72;100.00
68994;BME280;56054;50.968;5.816;2023-04-02T12:37:36;101423.63;;;5.73;100.00
68994;BME280;56054;50.968;5.816;2023-04-02T12:40:54;101425.53;;;5.84;100.00
68994;BME280;56054;50.968;5.816;2023-04-02T12:44:14;101423.59;;;5.82;100.00
68994;BME280;56054;50.968;5.816;2023-04-02T12:47:22;101429.38;;;5.79;100.00
68994;BME280;56054;50.968;5.816;2023-04-02T12:50:29;101435.31;;;5.78;100.00
68994;BME280;56054;50.968;5.816;2023-04-02T12:53:39;101434.69;;;5.81;100.00
68994;BME280;56054;50.968;5.816;2023-04-02T12:56:48;101429.38;;;5.79;100.00
68994;BME280;56054;50.968;5.816;2023-04-02T12:59:59;101443.16;;;5.79;100.00
68994;BME280;56054;50.968;5.816;2023-04-02T13:03:17;101439.72;;;5.70;100.00
68994;BME280;56054;50.968;5.816;2023-04-02T13:06:24;101453.91;;;5.84;100.00
68994;BME280;56054;50.968;5.816;2023-04-02T13:09:38;101458.78;;;5.81;100.00
68994;BME280;56054;50.968;5.816;2023-04-02T13:13:16;101452.53;;;5.88;100.00
68994;BME280;56054;50.968;5.816;2023-04-02T13:16:32;101453.28;;;5.87;100.00
68994;BME280;56054;50.968;5.816;2023-04-02T13:19:40;101452.97;;;6.20;100.00
68994;BME280;56054;50.968;5.816;2023-04-02T13:22:47;101455.75;;;6.13;100.00
68994;BME280;56054;50.968;5.816;2023-04-02T13:25:55;101460.47;;;6.08;100.00
68994;BME280;56054;50.968;5.816;2023-04-02T13:32:36;101474.88;;;6.15;100.00
68994;BME280;56054;50.968;5.816;2023-04-02T13:35:43;101474.47;;;6.02;100.00
68994;BME280;56054;50.968;5.816;2023-04-02T13:38:51;101474.75;;;6.05;100.00
68994;BME280;56054;50.968;5.816;2023-04-02T13:42:02;101482.44;;;6.13;100.00
68994;BME280;56054;50.968;5.816;2023-04-02T13:45:22;101477.84;;;6.00;100.00
68994;BME280;56054;50.968;5.816;2023-04-02T13:48:31;101483.78;;;6.18;100.00
68994;BME280;56054;50.968;5.816;2023-04-02T13:51:41;101489.41;;;6.14;100.00
68994;BME280;56054;50.968;5.816;2023-04-02T13:54:54;101492.34;;;6.09;100.00
68994;BME280;56054;50.968;5.816;2023-04-02T13:58:04;101499.81;;;6.06;100.00
68994;BME280;56054;50.968;5.816;2023-04-02T14:01:11;101500.56;;;6.05;100.00
68994;BME280;56054;50.968;5.816;2023-04-02T14:04:22;101508.44;;;6.06;100.00
68994;BME280;56054;50.968;5.816;2023-04-02T14:07:56;101505.72;;;6.05;100.00
68994;BME280;56054;50.968;5.816;2023-04-02T14:22:25;101527.53;;;6.17;100.00
68994;BME280;56054;50.968;5.816;2023-04-02T14:26:00;101542.06;;;6.16;100.00
68994;BME280;56054;50.968;5.816;2023-04-02T14:29:21;101541.03;;;6.14;100.00
68994;BME280;56054;50.968;5.816;2023-04-02T14:32:54;101544.81;;;6.18;100.00
68994;BME280;56054;50.968;5.816;2023-04-02T14:36:23;101543.66;;;6.06;100.00
68994;BME280;56054;50.968;5.816;2023-04-02T14:43:10;101551.03;;;6.20;100.00
68994;BME280;56054;50.968;5.816;2023-04-02T14:46:18;101546.19;;;6.14;100.00
68994;BME280;56054;50.968;5.816;2023-04-02T14:49:35;101549.97;;;6.18;100.00
68994;BME280;56054;50.968;5.816;2023-04-02T14:52:46;101550.41;;;6.22;100.00
68994;BME280;56054;50.968;5.816;2023-04-02T14:55:58;101545.09;;;6.21;100.00
68994;BME280;56054;50.968;5.816;2023-04-02T15:03:12;101561.06;;;6.17;100.00
68994;BME280;56054;50.968;5.816;2023-04-02T15:07:00;101572.16;;;6.16;100.00
68994;BME280;56054;50.968;5.816;2023-04-02T15:10:31;101570.03;;;6.12;100.00
68994;BME280;56054;50.968;5.816;2023-04-02T15:17:21;101580.34;;;6.12;100.00
68994;BME280;56054;50.968;5.816;2023-04-02T15:20:42;101583.25;;;6.15;100.00
68994;BME280;56054;50.968;5.816;2023-04-02T15:24:09;101595.56;;;6.09;100.00
68994;BME280;56054;50.968;5.816;2023-04-02T15:30:57;101599.09;;;6.00;100.00
68994;BME280;56054;50.968;5.816;2023-04-02T15:44:26;101607.09;;;6.12;100.00
68994;BME280;56054;50.968;5.816;2023-04-02T15:51:35;101612.56;;;6.07;100.00
68994;BME280;56054;50.968;5.816;2023-04-02T15:58:23;101626.22;;;6.06;100.00
68994;BME280;56054;50.968;5.816;2023-04-02T16:02:28;101622.31;;;6.00;100.00
68994;BME280;56054;50.968;5.816;2023-04-02T16:12:24;101636.50;;;6.14;100.00
68994;BME280;56054;50.968;5.816;2023-04-02T16:16:03;101642.00;;;6.09;100.00
68994;BME280;56054;50.968;5.816;2023-04-02T16:19:18;101639.41;;;6.09;100.00
68994;BME280;56054;50.968;5.816;2023-04-02T16:22:33;101654.44;;;6.13;100.00
68994;BME280;56054;50.968;5.816;2023-04-02T16:39:43;101658.19;;;6.25;99.01
68994;BME280;56054;50.968;5.816;2023-04-02T16:43:17;101661.81;;;6.27;98.68
68994;BME280;56054;50.968;5.816;2023-04-02T16:50:20;101671.19;;;6.35;98.81
68994;BME280;56054;50.968;5.816;2023-04-02T16:57:28;101686.69;;;6.35;97.78
68994;BME280;56054;50.968;5.816;2023-04-02T17:00:44;101681.06;;;6.39;99.05
68994;BME280;56054;50.968;5.816;2023-04-02T17:07:21;101698.63;;;6.43;95.28
68994;BME280;56054;50.968;5.816;2023-04-02T17:13:51;101715.97;;;6.45;95.68
68994;BME280;56054;50.968;5.816;2023-04-02T17:17:02;101716.72;;;6.43;96.14
68994;BME280;56054;50.968;5.816;2023-04-02T17:20:21;101718.81;;;6.48;95.72
68994;BME280;56054;50.968;5.816;2023-04-02T17:23:31;101724.94;;;6.39;95.25
68994;BME280;56054;50.968;5.816;2023-04-02T17:26:40;101722.38;;;6.39;95.21
68994;BME280;56054;50.968;5.816;2023-04-02T17:29:52;101724.78;;;6.38;95.32
68994;BME280;56054;50.968;5.816;2023-04-02T17:33:01;101729.66;;;6.35;95.45
68994;BME280;56054;50.968;5.816;2023-04-02T17:36:31;101734.38;;;6.39;95.96
68994;BME280;56054;50.968;5.816;2023-04-02T17:40:01;101731.47;;;6.36;97.39
68994;BME280;56054;50.968;5.816;2023-04-02T17:43:16;101742.69;;;6.36;97.59
68994;BME280;56054;50.968;5.816;2023-04-02T17:50:18;101742.69;;;6.36;98.82
68994;BME280;56054;50.968;5.816;2023-04-02T17:57:22;101742.56;;;6.35;98.09
68994;BME280;56054;50.968;5.816;2023-04-02T18:00:49;101756.38;;;6.35;100.00
68994;BME280;56054;50.968;5.816;2023-04-02T18:15:01;101785.56;;;6.34;97.04
68994;BME280;56054;50.968;5.816;2023-04-02T18:22:29;101791.00;;;6.37;96.74
68994;BME280;56054;50.968;5.816;2023-04-02T18:26:38;101797.84;;;6.37;98.61
68994;BME280;56054;50.968;5.816;2023-04-02T18:34:04;101815.63;;;6.25;100.00
68994;BME280;56054;50.968;5.816;2023-04-02T18:41:40;101823.97;;;6.22;100.00
68994;BME280;56054;50.968;5.816;2023-04-02T18:46:03;101839.94;;;6.27;100.00
68994;BME280;56054;50.968;5.816;2023-04-02T18:49:03;101835.81;;;6.29;100.00
68994;BME280;56054;50.968;5.816;2023-04-02T18:52:24;101838.41;;;6.20;100.00
68994;BME280;56054;50.968;5.816;2023-04-02T18:56:10;101849.50;;;6.19;100.00
68994;BME280;56054;50.968;5.816;2023-04-02T19:02:59;101857.84;;;6.17;100.00
68994;BME280;56054;50.968;5.816;2023-04-02T19:06:22;101859.03;;;6.12;100.00
68994;BME280;56054;50.968;5.816;2023-04-02T19:09:39;101860.09;;;6.14;100.00
68994;BME280;56054;50.968;5.816;2023-04-02T19:12:52;101866.03;;;6.13;100.00
68994;BME280;56054;50.968;5.816;2023-04-02T19:23:13;101877.28;;;6.13;96.07
68994;BME280;56054;50.968;5.816;2023-04-02T19:26:34;101895.78;;;6.09;95.35
68994;BME280;56054;50.968;5.816;2023-04-02T19:36:37;101902.47;;;6.16;93.99
68994;BME280;56054;50.968;5.816;2023-04-02T19:39:49;101893.53;;;6.12;94.50
68994;BME280;56054;50.968;5.816;2023-04-02T19:42:58;101891.56;;;6.10;93.67
68994;BME280;56054;50.968;5.816;2023-04-02T19:46:06;101905.66;;;6.13;93.38
68994;BME280;56054;50.968;5.816;2023-04-02T19:49:16;101902.31;;;6.14;93.10
68994;BME280;56054;50.968;5.816;2023-04-02T19:52:24;101906.88;;;6.08;93.71
68994;BME280;56054;50.968;5.816;2023-04-02T19:55:36;101910.06;;;6.06;94.84
68994;BME280;56054;50.968;5.816;2023-04-02T19:58:44;101906.13;;;6.00;95.95
68994;BME280;56054;50.968;5.816;2023-04-02T20:01:56;101920.09;;;6.03;95.45
68994;BME280;56054;50.968;5.816;2023-04-02T20:05:03;101914.59;;;5.99;95.91
68994;BME280;56054;50.968;5.816;2023-04-02T20:08:10;101912.19;;;6.01;97.08
68994;BME280;56054;50.968;5.816;2023-04-02T20:11:24;101913.56;;;5.97;97.41
68994;BME280;56054;50.968;5.816;2023-04-02T20:14:32;101915.47;;;5.91;97.08
68994;BME280;56054;50.968;5.816;2023-04-02T20:17:39;101918.81;;;5.90;98.40
68994;BME280;56054;50.968;5.816;2023-04-02T20:20:47;101925.31;;;5.87;98.96
68994;BME280;56054;50.968;5.816;2023-04-02T20:24:01;101929.72;;;5.79;98.71
68994;BME280;56054;50.968;5.816;2023-04-02T20:27:11;101925.13;;;5.68;98.65
68994;BME280;56054;50.968;5.816;2023-04-02T20:30:18;101933.63;;;5.67;99.04
68994;BME280;56054;50.968;5.816;2023-04-02T20:33:26;101930.72;;;5.55;99.44
68994;BME280;56054;50.968;5.816;2023-04-02T20:36:42;101939.69;;;5.58;99.57
68994;BME280;56054;50.968;5.816;2023-04-02T20:39:49;101928.44;;;5.49;99.01
68994;BME280;56054;50.968;5.816;2023-04-02T20:43:27;101942.38;;;5.51;98.56
68994;BME280;56054;50.968;5.816;2023-04-02T20:46:34;101939.34;;;5.47;99.51
68994;BME280;56054;50.968;5.816;2023-04-02T20:50:12;101952.47;;;5.41;99.16
68994;BME280;56054;50.968;5.816;2023-04-02T20:53:30;101946.22;;;5.30;99.75
68994;BME280;56054;50.968;5.816;2023-04-02T20:56:42;101953.78;;;5.29;99.67
68994;BME280;56054;50.968;5.816;2023-04-02T20:59:49;101948.94;;;5.23;97.81
68994;BME280;56054;50.968;5.816;2023-04-02T21:02:58;101961.97;;;5.25;98.90
68994;BME280;56054;50.968;5.816;2023-04-02T21:06:11;101958.03;;;5.20;98.90
68994;BME280;56054;50.968;5.816;2023-04-02T21:09:18;101963.91;;;5.19;98.83
68994;BME280;56054;50.968;5.816;2023-04-02T21:12:26;101975.50;;;5.31;99.71
68994;BME280;56054;50.968;5.816;2023-04-02T21:15:33;101974.66;;;5.14;99.45
68994;BME280;56054;50.968;5.816;2023-04-02T21:18:40;101977.94;;;5.05;100.00
68994;BME280;56054;50.968;5.816;2023-04-02T21:21:48;101974.22;;;4.94;100.00
68994;BME280;56054;50.968;5.816;2023-04-02T21:24:55;101983.78;;;4.95;100.00
68994;BME280;56054;50.968;5.816;2023-04-02T21:28:02;101991.63;;;4.88;100.00
68994;BME280;56054;50.968;5.816;2023-04-02T21:31:14;101991.28;;;4.85;100.00
68994;BME280;56054;50.968;5.816;2023-04-02T21:34:22;101984.41;;;4.77;100.00
68994;BME280;56054;50.968;5.816;2023-04-02T21:37:29;101988.47;;;4.75;100.00
68994;BME280;56054;50.968;5.816;2023-04-02T21:40:36;101992.22;;;4.69;100.00
68994;BME280;56054;50.968;5.816;2023-04-02T21:43:47;101980.13;;;4.68;100.00
68994;BME280;56054;50.968;5.816;2023-04-02T21:47:01;101985.28;;;4.68;100.00
68994;BME280;56054;50.968;5.816;2023-04-02T21:50:11;101991.09;;;4.59;100.00
68994;BME280;56054;50.968;5.816;2023-04-02T21:53:28;101995.22;;;4.65;100.00
68994;BME280;56054;50.968;5.816;2023-04-02T21:56:44;101995.31;;;4.74;100.00
68994;BME280;56054;50.968;5.816;2023-04-02T21:59:52;101997.22;;;4.68;100.00
68994;BME280;56054;50.968;5.816;2023-04-02T22:02:59;101995.16;;;4.57;100.00
68994;BME280;56054;50.968;5.816;2023-04-02T22:06:08;102011.53;;;4.57;100.00
